Time;durP1;ratioP1;P1;durP2;ratioP2;P2;SDS_P1;SDS_P2;PMS_P1;PMS_P2;Temp;Humidity;BMP_temperature;BMP_pressure;BME280_temperature;BME280_humidity;BME280_pressure;Samples;Min_cycle;Max_cycle;Signal;HPM_P1;HPM_P2
2022/07/14 00:01:17;;;;;;;2.80;1.80;;;;;;;18.73;62.96;100967.84;107194;1249;71078;-73
2022/07/14 00:03:46;;;;;;;3.50;1.80;;;;;;;18.74;63.04;100966.45;107137;1249;61701;-74
2022/07/14 00:06:16;;;;;;;3.10;1.90;;;;;;;18.75;63.17;100973.24;107134;1251;60160;-74
2022/07/14 00:08:45;;;;;;;2.90;1.70;;;;;;;18.75;63.29;100973.58;107203;1249;63201;-74
2022/07/14 00:11:14;;;;;;;4.90;2.00;;;;;;;18.74;63.49;100976.36;107218;1249;58039;-73
2022/07/14 00:13:43;;;;;;;2.40;1.50;;;;;;;18.76;63.81;100978.10;107137;1249;60463;-74
2022/07/14 00:16:11;;;;;;;3.40;1.90;;;;;;;18.74;63.92;100972.60;106955;1252;62680;-74
2022/07/14 00:18:43;;;;;;;5.60;2.10;;;;;;;18.69;63.57;100972.98;107196;1249;61634;-74
2022/07/14 00:21:14;;;;;;;2.50;1.80;;;;;;;18.65;64.18;100978.52;107176;1250;59847;-75
2022/07/14 00:23:44;;;;;;;4.30;1.90;;;;;;;18.60;64.19;100978.13;107077;1250;73928;-73
2022/07/14 00:26:14;;;;;;;3.00;1.80;;;;;;;18.58;64.65;100984.66;106937;1250;57956;-74
2022/07/14 00:28:43;;;;;;;3.70;2.10;;;;;;;18.55;64.81;100988.88;106999;1249;60443;-75
2022/07/14 00:31:12;;;;;;;2.80;1.80;;;;;;;18.53;64.65;100994.64;107010;1251;62169;-75
2022/07/14 00:33:41;;;;;;;4.10;1.90;;;;;;;18.51;64.81;100993.84;107264;1250;60797;-76
2022/07/14 00:36:10;;;;;;;2.10;1.60;;;;;;;18.46;64.91;100991.86;107121;1249;70485;-76
2022/07/14 00:38:38;;;;;;;2.50;1.70;;;;;;;18.40;65.39;100995.71;107371;1250;74362;-75
2022/07/14 00:41:07;;;;;;;2.70;1.90;;;;;;;18.30;65.21;100992.84;107346;1250;57971;-75
2022/07/14 00:43:38;;;;;;;5.60;2.00;;;;;;;18.22;65.19;100989.35;107053;1251;57687;-75
2022/07/14 00:46:07;;;;;;;5.30;2.70;;;;;;;18.15;65.49;100987.73;107144;1249;61314;-75
2022/07/14 00:48:36;;;;;;;3.70;2.10;;;;;;;18.10;65.56;100991.45;107243;1250;71634;-76
2022/07/14 00:51:05;;;;;;;4.20;1.80;;;;;;;18.00;65.71;100992.59;107140;1251;59603;-77
2022/07/14 00:53:35;;;;;;;3.80;1.70;;;;;;;17.90;65.93;100988.48;107292;1251;62370;-77
2022/07/14 00:56:04;;;;;;;2.80;1.90;;;;;;;17.82;66.24;100990.41;107139;1249;58391;-75
2022/07/14 00:58:33;;;;;;;2.60;1.90;;;;;;;17.68;67.09;100991.65;107391;1249;60504;-77
2022/07/14 01:01:02;;;;;;;3.50;2.10;;;;;;;17.57;67.44;100994.55;107531;1248;70793;-76
2022/07/14 01:03:32;;;;;;;3.50;2.30;;;;;;;17.46;67.63;100996.27;107590;1248;72263;-76
2022/07/14 01:06:00;;;;;;;3.10;2.00;;;;;;;17.29;69.45;100994.85;107572;1247;70889;-76
2022/07/14 01:08:29;;;;;;;3.00;1.80;;;;;;;17.24;68.48;100996.68;107480;1247;62888;-76
2022/07/14 01:10:58;;;;;;;4.30;2.00;;;;;;;17.13;68.27;100996.11;107305;1248;60812;-75
2022/07/14 01:13:28;;;;;;;4.40;2.30;;;;;;;16.98;71.40;100996.89;107562;1247;59542;-77
2022/07/14 01:15:57;;;;;;;5.10;2.00;;;;;;;16.91;70.12;100995.64;107394;1248;72708;-77
2022/07/14 01:18:26;;;;;;;3.40;1.90;;;;;;;16.86;69.27;100988.18;107315;1247;71940;-78
2022/07/14 01:20:54;;;;;;;6.50;2.00;;;;;;;16.83;69.32;100996.17;107418;1247;71916;-76
2022/07/14 01:23:23;;;;;;;3.60;2.00;;;;;;;16.82;69.86;100993.83;107465;1247;64116;-77
2022/07/14 01:25:52;;;;;;;3.80;2.20;;;;;;;16.80;71.18;100985.92;107490;1247;58924;-77
2022/07/14 01:28:21;;;;;;;4.60;2.00;;;;;;;16.79;72.31;100985.87;107535;1247;59181;-74
2022/07/14 01:30:49;;;;;;;3.70;1.90;;;;;;;16.77;72.27;100987.26;107127;1248;71189;-75
2022/07/14 01:33:18;;;;;;;4.10;1.80;;;;;;;16.79;72.25;100988.64;107363;1248;69816;-74
2022/07/14 01:35:47;;;;;;;3.40;2.30;;;;;;;16.81;71.92;100993.98;107234;1250;68692;-74
2022/07/14 01:38:16;;;;;;;3.10;1.90;;;;;;;16.83;72.14;100993.84;107523;1247;73854;-73
2022/07/14 01:40:45;;;;;;;4.20;1.90;;;;;;;16.86;72.21;100993.49;107304;1248;63241;-74
2022/07/14 01:43:13;;;;;;;3.70;2.00;;;;;;;16.85;72.41;100993.67;107429;1248;61478;-75
2022/07/14 01:45:42;;;;;;;2.80;2.00;;;;;;;16.86;72.46;100998.54;107479;1248;69012;-74
2022/07/14 01:48:11;;;;;;;3.40;2.10;;;;;;;16.82;72.97;101004.69;107347;1248;69538;-72
2022/07/14 01:50:40;;;;;;;4.10;2.20;;;;;;;16.79;73.24;101009.20;107355;1248;71623;-75
2022/07/14 01:53:08;;;;;;;7.40;2.00;;;;;;;16.76;73.08;101011.59;107381;1248;71876;-76
2022/07/14 01:55:38;;;;;;;4.00;2.20;;;;;;;16.75;72.92;101012.82;107505;1247;61602;-75
2022/07/14 01:58:06;;;;;;;3.00;2.00;;;;;;;16.73;73.33;101013.65;107424;1247;61427;-74
2022/07/14 02:00:35;;;;;;;4.50;2.00;;;;;;;16.73;73.33;101009.09;107240;1247;71416;-74
2022/07/14 02:03:04;;;;;;;4.70;2.30;;;;;;;16.74;73.37;101009.00;107325;1250;70350;-74
2022/07/14 02:05:33;;;;;;;3.80;2.10;;;;;;;16.77;73.27;101011.14;107355;1248;68676;-74
2022/07/14 02:08:02;;;;;;;2.90;2.00;;;;;;;16.81;72.95;101011.52;107370;1248;63548;-73
2022/07/14 02:13:23;;;;;;;4.10;2.10;;;;;;;16.85;72.16;101011.30;107581;1247;59280;-73
2022/07/14 02:15:53;;;;;;;6.20;2.20;;;;;;;16.87;72.18;101011.45;107397;1248;72242;-73
2022/07/14 02:18:22;;;;;;;3.60;2.10;;;;;;;16.87;72.52;101014.27;107381;1248;72147;-77
2022/07/14 02:20:50;;;;;;;3.00;2.10;;;;;;;16.87;73.02;101016.09;107545;1247;69486;-75
2022/07/14 02:23:19;;;;;;;3.70;2.20;;;;;;;16.88;72.39;101015.61;107362;1251;71869;-74
2022/07/14 02:25:48;;;;;;;3.90;2.10;;;;;;;16.88;72.57;101019.30;107261;1248;63185;-73
2022/07/14 02:28:17;;;;;;;4.50;2.50;;;;;;;16.85;73.68;101020.59;107213;1248;60411;-74
2022/07/14 02:30:47;;;;;;;4.60;2.60;;;;;;;16.83;73.78;101019.38;107196;1250;71450;-75
2022/07/14 02:33:15;;;;;;;5.60;2.60;;;;;;;16.83;73.37;101023.03;107158;1247;72207;-74
2022/07/14 02:35:45;;;;;;;5.50;2.80;;;;;;;16.89;71.96;101024.25;107450;1248;68378;-75
2022/07/14 02:38:14;;;;;;;4.20;2.70;;;;;;;16.94;72.17;101024.47;107396;1247;71140;-72
2022/07/14 02:40:43;;;;;;;5.90;3.00;;;;;;;16.97;72.65;101024.59;107131;1247;62548;-73
2022/07/14 02:43:12;;;;;;;5.50;2.10;;;;;;;16.98;72.75;101023.44;107518;1247;60797;-73
2022/07/14 02:45:40;;;;;;;5.80;3.00;;;;;;;17.00;72.75;101025.56;107478;1250;74279;-74
2022/07/14 02:48:10;;;;;;;4.00;2.40;;;;;;;17.01;72.44;101022.11;107379;1248;71260;-73
2022/07/14 02:50:40;;;;;;;8.70;2.50;;;;;;;17.04;72.83;101025.33;107422;1248;70223;-76
2022/07/14 02:53:09;;;;;;;4.50;2.30;;;;;;;17.05;72.85;101028.77;107320;1251;62944;-74
2022/07/14 02:55:41;;;;;;;7.70;2.70;;;;;;;17.05;72.54;101031.38;107449;1250;62174;-75
2022/07/14 02:58:11;;;;;;;4.50;2.40;;;;;;;17.03;72.40;101030.66;107767;1248;60421;-77
2022/07/14 03:00:41;;;;;;;6.80;3.30;;;;;;;17.08;72.04;101035.15;107854;1247;73818;-77
2022/07/14 03:03:10;;;;;;;4.20;2.30;;;;;;;17.06;72.05;101038.65;107729;1248;70856;-77
2022/07/14 03:05:39;;;;;;;4.20;2.60;;;;;;;17.10;71.97;101039.88;107521;1250;69227;-77
2022/07/14 03:08:09;;;;;;;5.60;3.10;;;;;;;17.08;71.83;101039.88;107713;1250;72111;-77
2022/07/14 03:10:38;;;;;;;5.00;3.00;;;;;;;17.09;71.80;101044.90;107694;1250;62927;-77
2022/07/14 03:13:06;;;;;;;10.50;2.80;;;;;;;17.07;72.49;101041.23;108011;1250;60450;-77
2022/07/14 03:15:38;;;;;;;5.40;3.00;;;;;;;17.03;72.81;101037.20;107159;1251;71731;-77
2022/07/14 03:18:07;;;;;;;4.70;2.50;;;;;;;16.98;72.80;101043.33;107316;1249;71498;-75
2022/07/14 03:20:39;;;;;;;4.10;2.30;;;;;;;17.01;72.31;101039.56;107510;1250;70397;-74
2022/07/14 03:23:08;;;;;;;10.60;5.70;;;;;;;17.05;72.59;101036.71;107378;1250;73492;-73
2022/07/14 03:25:41;;;;;;;5.10;3.10;;;;;;;17.08;72.46;101037.48;107392;1250;64137;-77
2022/07/14 03:28:10;;;;;;;6.40;3.10;;;;;;;17.11;71.58;101038.68;107635;1249;61650;-76
2022/07/14 03:30:40;;;;;;;5.20;2.90;;;;;;;17.17;71.73;101037.13;107381;1250;72113;-74
2022/07/14 03:33:10;;;;;;;7.70;3.20;;;;;;;17.20;71.51;101036.95;107377;1250;61576;-76
2022/07/14 03:35:40;;;;;;;7.30;3.60;;;;;;;17.27;71.04;101037.95;107527;1249;68387;-76
2022/07/14 03:38:08;;;;;;;11.40;4.20;;;;;;;17.35;69.43;101034.67;107397;1249;74557;-77
2022/07/14 03:40:59;;;;;;;6.00;2.70;;;;;;;17.46;69.88;101029.54;107612;1249;61142;-76
2022/07/14 03:43:28;;;;;;;9.40;3.00;;;;;;;17.52;69.60;101033.63;107414;1249;61761;-74
2022/07/14 03:45:58;;;;;;;9.30;3.50;;;;;;;17.60;69.77;101034.45;107467;1249;73344;-75
2022/07/14 03:48:26;;;;;;;7.30;2.70;;;;;;;17.66;69.51;101039.40;107472;1249;71901;-75
2022/07/14 03:51:00;;;;;;;5.70;3.10;;;;;;;17.74;69.33;101038.52;107524;1249;60454;-75
2022/07/14 03:53:30;;;;;;;8.40;3.40;;;;;;;17.83;69.36;101043.61;107429;1249;74048;-75
2022/07/14 03:56:00;;;;;;;8.30;3.00;;;;;;;17.93;68.56;101040.91;107382;1249;58883;-75
2022/07/14 03:58:36;;;;;;;14.40;4.30;;;;;;;18.05;68.53;101045.04;107944;1249;61118;-78
2022/07/14 04:01:05;;;;;;;6.90;3.50;;;;;;;18.14;68.89;101047.08;107996;1249;73797;-80
2022/07/14 04:03:35;;;;;;;5.90;3.10;;;;;;;18.24;67.75;101049.77;108086;1251;73109;-78
2022/07/14 04:06:04;;;;;;;10.60;3.20;;;;;;;18.35;66.53;101048.40;107890;1249;71000;-76
2022/07/14 04:08:33;;;;;;;5.50;3.10;;;;;;;18.47;66.85;101049.59;107427;1249;73877;-78
2022/07/14 04:11:04;;;;;;;13.10;4.60;;;;;;;18.59;66.59;101046.14;107431;1248;59018;-76
2022/07/14 04:13:35;;;;;;;6.60;3.80;;;;;;;18.69;66.09;101046.84;107355;1251;59410;-73
2022/07/14 04:16:05;;;;;;;6.00;3.70;;;;;;;18.84;65.43;101053.69;107082;1250;73558;-74
2022/07/14 04:18:39;;;;;;;7.10;3.10;;;;;;;18.98;64.53;101050.86;107290;1249;73915;-72
2022/07/14 04:21:11;;;;;;;7.10;3.60;;;;;;;19.12;64.07;101051.48;107217;1250;69633;-73
2022/07/14 04:23:40;;;;;;;7.90;3.60;;;;;;;19.27;63.60;101056.78;107219;1249;73470;-73
2022/07/14 04:26:09;;;;;;;4.40;2.20;;;;;;;19.41;63.81;101056.60;107241;1251;59161;-74
2022/07/14 04:28:38;;;;;;;5.70;2.50;;;;;;;19.54;61.57;101055.73;107025;1249;58059;-76
2022/07/14 04:31:08;;;;;;;5.90;2.10;;;;;;;19.70;57.40;101058.35;107212;1249;73090;-74
2022/07/14 04:33:40;;;;;;;3.90;2.30;;;;;;;19.81;55.70;101056.15;107033;1250;71973;-72
2022/07/14 04:36:10;;;;;;;3.50;2.20;;;;;;;19.85;55.14;101057.85;106997;1249;60382;-73
2022/07/14 04:38:39;;;;;;;2.90;2.10;;;;;;;19.84;55.35;101065.48;107701;1249;73638;-73
2022/07/14 04:41:08;;;;;;;5.90;2.30;;;;;;;19.82;55.44;101066.27;107222;1249;59108;-77
2022/07/14 04:43:40;;;;;;;4.50;2.60;;;;;;;19.78;56.01;101072.03;107167;1249;60529;-76
2022/07/14 04:46:09;;;;;;;6.20;2.50;;;;;;;19.76;56.66;101071.33;107000;1250;73306;-74
2022/07/14 04:54:24;;;;;;;4.70;2.90;;;;;;;19.88;56.89;101078.52;107196;1249;74335;-75
2022/07/14 04:57:12;;;;;;;6.60;2.50;;;;;;;19.95;56.23;101080.26;107225;1249;61905;-73
2022/07/14 04:59:45;;;;;;;10.50;3.50;;;;;;;20.06;55.89;101083.84;107028;1250;60727;-72
2022/07/14 05:02:15;;;;;;;5.10;2.70;;;;;;;20.16;55.41;101083.00;107075;1251;73747;-74
2022/07/14 05:04:44;;;;;;;6.40;2.80;;;;;;;20.21;55.53;101080.73;107192;1252;60787;-72
2022/07/14 05:07:13;;;;;;;5.40;2.80;;;;;;;20.27;55.39;101082.98;107402;1249;59059;-72
2022/07/14 05:09:49;;;;;;;4.40;2.60;;;;;;;20.35;55.50;101084.73;107200;1250;72249;-77
2022/07/14 05:12:18;;;;;;;4.50;2.70;;;;;;;20.47;54.77;101087.75;107179;1250;58865;-77
2022/07/14 05:14:48;;;;;;;5.80;2.40;;;;;;;20.55;54.43;101087.41;107295;1250;59163;-75
2022/07/14 05:17:18;;;;;;;5.10;2.80;;;;;;;20.62;54.70;101087.41;107454;1249;72866;-72
2022/07/14 05:20:10;;;;;;;3.30;2.20;;;;;;;20.72;54.92;101077.58;108561;1249;72040;-79
2022/07/14 05:22:46;;;;;;;5.80;2.60;;;;;;;20.82;54.49;101081.25;109202;1249;60806;-79
2022/07/14 05:25:48;;;;;;;7.10;2.40;;;;;;;20.97;53.66;101080.14;109508;1240;73074;31
2022/07/14 05:28:17;;;;;;;4.10;2.10;;;;;;;21.15;52.65;101075.98;109166;1252;60572;-81
2022/07/14 05:30:57;;;;;;;3.50;2.20;;;;;;;21.32;52.11;101077.48;109184;1253;57950;-80
2022/07/14 05:33:37;;;;;;;4.00;2.20;;;;;;;21.50;51.67;101078.88;109263;1253;71114;-82
2022/07/14 05:36:07;;;;;;;7.90;2.60;;;;;;;21.68;51.22;101073.56;109609;1252;71588;-84
2022/07/14 05:38:47;;;;;;;3.90;2.20;;;;;;;21.79;51.32;101070.31;109890;1244;71628;31
2022/07/14 05:41:19;;;;;;;5.50;2.30;;;;;;;21.92;50.96;101064.68;109311;1253;64270;-85
2022/07/14 05:43:49;;;;;;;6.50;2.40;;;;;;;21.97;50.70;101055.95;109035;1247;59289;-84
2022/07/14 05:54:19;;;;;;;3.20;2.00;;;;;;;22.71;49.60;101078.71;107215;1273;70512;-84
2022/07/14 06:00:46;;;;;;;4.80;2.40;;;;;;;22.98;48.95;101072.55;107339;1269;72400;-80
2022/07/14 06:03:18;;;;;;;7.20;2.30;;;;;;;23.07;48.89;101065.38;107180;1275;61519;-86
2022/07/14 06:16:50;;;;;;;4.40;1.90;;;;;;;23.90;46.24;101071.45;106100;1282;70382;-82
2022/07/14 06:19:20;;;;;;;3.80;2.20;;;;;;;24.04;46.27;101074.05;107016;1273;74830;-82
2022/07/14 06:22:00;;;;;;;3.50;2.10;;;;;;;24.17;46.17;101073.49;106995;1282;57574;-83
2022/07/14 06:24:49;;;;;;;5.00;2.10;;;;;;;24.33;45.52;101071.48;107054;1282;58264;-82
2022/07/14 06:27:35;;;;;;;6.00;2.50;;;;;;;24.41;45.70;101079.19;107119;1275;63074;-85
2022/07/14 06:30:31;;;;;;;4.60;2.10;;;;;;;24.46;45.00;101053.23;107216;1273;71757;-81
2022/07/14 06:36:59;;;;;;;5.70;1.90;;;;;;;24.88;44.66;101073.11;107444;1269;63032;-83
2022/07/14 06:43:58;;;;;;;6.80;2.40;;;;;;;25.28;43.15;101079.48;107458;1270;57478;31
2022/07/14 06:46:39;;;;;;;5.60;2.20;;;;;;;25.56;42.26;101073.05;107354;1270;62412;-85
2022/07/14 06:53:03;;;;;;;4.60;2.20;;;;;;;25.71;42.43;101077.75;100373;1277;59638;-84
2022/07/14 06:55:39;;;;;;;5.60;2.20;;;;;;;25.61;42.26;101046.86;107401;1269;72213;-82
2022/07/14 06:58:16;;;;;;;4.30;2.00;;;;;;;25.58;41.49;101043.94;107547;1276;59017;-84
2022/07/14 07:08:39;;;;;;;5.30;2.30;;;;;;;26.20;40.28;101065.52;107793;1266;69156;-82
2022/07/14 07:11:10;;;;;;;5.90;2.20;;;;;;;26.43;39.48;101071.23;107766;1266;59836;-80
2022/07/14 07:13:47;;;;;;;4.30;2.70;;;;;;;26.70;38.30;101081.73;107583;1266;75285;31
2022/07/14 07:29:16;;;;;;;4.40;2.30;;;;;;;26.63;37.35;101063.98;107724;1269;59421;31
2022/07/14 07:31:47;;;;;;;3.60;2.20;;;;;;;26.51;37.76;101062.38;105387;1279;61102;-83
2022/07/14 07:34:16;;;;;;;3.80;2.10;;;;;;;26.51;37.76;101062.79;105310;1279;62639;-83
2022/07/14 07:36:49;;;;;;;5.00;2.10;;;;;;;26.51;37.68;101062.79;105284;1277;59098;-79
2022/07/14 07:39:43;;;;;;;7.40;2.20;;;;;;;26.49;38.05;101064.61;105155;1277;62421;-83
2022/07/14 07:42:17;;;;;;;3.60;1.90;;;;;;;26.56;37.95;101055.23;105402;1279;73387;-81
2022/07/14 07:44:49;;;;;;;3.40;1.70;;;;;;;26.57;37.85;101049.23;105344;1279;73486;-84
2022/07/14 07:47:29;;;;;;;4.00;2.20;;;;;;;26.62;37.66;101051.90;105476;1277;71097;-84
2022/07/14 07:55:13;;;;;;;2.90;1.70;;;;;;;26.81;37.73;101046.92;106369;1266;59013;31
2022/07/14 07:58:54;;;;;;;5.30;2.30;;;;;;;26.79;37.51;101046.92;106564;1266;62401;-86
2022/07/14 08:01:24;;;;;;;7.30;2.10;;;;;;;26.83;37.59;101038.09;106474;1276;73412;-85
2022/07/14 08:08:29;;;;;;;3.00;2.10;;;;;;;26.91;37.17;101035.27;106520;1279;59455;-86
2022/07/14 08:11:41;;;;;;;4.60;2.10;;;;;;;26.95;37.43;101024.87;105810;1281;73347;-85
2022/07/14 08:17:08;;;;;;;5.30;2.00;;;;;;;27.02;37.16;101039.61;106273;1280;60186;-86
2022/07/14 08:19:37;;;;;;;5.00;1.90;;;;;;;26.95;37.24;101026.35;106212;1281;74377;-84
2022/07/14 08:22:06;;;;;;;4.10;2.10;;;;;;;27.04;37.36;101029.75;106380;1280;72226;-85
2022/07/14 08:24:36;;;;;;;4.00;2.00;;;;;;;27.16;37.17;101029.77;105939;1281;70773;-85
2022/07/14 08:27:06;;;;;;;3.70;2.20;;;;;;;27.38;36.12;101032.60;106025;1280;72984;-84
2022/07/14 08:29:50;;;;;;;3.90;1.90;;;;;;;27.66;35.54;101034.11;106266;1282;58014;-86
2022/07/14 08:32:53;;;;;;;5.00;1.90;;;;;;;27.79;34.92;101031.05;106190;1281;60879;-87
2022/07/14 08:35:27;;;;;;;3.40;2.00;;;;;;;27.72;34.89;101029.95;106321;1281;72725;-87
2022/07/14 08:37:59;;;;;;;6.70;2.00;;;;;;;27.60;34.93;101028.16;105898;1281;71501;-86
2022/07/14 08:40:29;;;;;;;3.40;1.90;;;;;;;27.38;35.11;101024.52;106192;1281;59907;-85
2022/07/14 08:42:59;;;;;;;2.60;1.80;;;;;;;27.21;35.46;101030.45;106355;1281;73414;-86
2022/07/14 08:45:36;;;;;;;2.70;1.90;;;;;;;27.42;35.13;101019.09;106234;1281;57461;-83
2022/07/14 08:48:12;;;;;;;2.50;1.80;;;;;;;27.59;34.88;101026.09;106528;1281;57926;-84
2022/07/14 08:50:42;;;;;;;3.90;2.10;;;;;;;27.71;34.87;101026.33;106067;1280;75100;-85
2022/07/14 08:53:13;;;;;;;2.70;1.80;;;;;;;27.96;34.45;101018.70;106209;1281;72326;-84
2022/07/14 08:55:46;;;;;;;4.20;1.80;;;;;;;28.11;34.12;101019.45;105925;1281;69906;-85
2022/07/14 08:58:14;;;;;;;4.70;1.90;;;;;;;28.29;33.53;101018.94;106268;1281;73116;-85
2022/07/14 09:00:46;;;;;;;2.90;1.70;;;;;;;28.21;33.53;101020.44;105850;1281;60588;-81
2022/07/14 09:22:01;;;;;;;5.20;2.00;;;;;;;28.28;32.82;100998.03;106955;1269;58294;-82
2022/07/14 09:36:31;;;;;;;4.00;1.80;;;;;;;28.87;32.18;100986.40;107202;1266;606227;-83
2022/07/14 09:39:12;;;;;;;4.20;1.90;;;;;;;29.26;31.69;100975.11;107229;1237;2408559;-82
2022/07/14 09:41:56;;;;;;;2.20;1.60;;;;;;;29.22;31.67;100984.80;109656;1237;57551;-83
2022/07/14 09:44:26;;;;;;;2.90;1.80;;;;;;;29.11;31.73;100979.98;108858;1236;69829;-83
2022/07/14 09:46:57;;;;;;;3.10;1.90;;;;;;;28.97;32.25;100984.24;109055;1237;72730;-84
2022/07/14 09:49:30;;;;;;;4.90;1.90;;;;;;;29.10;31.67;100981.11;109336;1237;70272;-83
2022/07/14 09:52:06;;;;;;;7.40;2.00;;;;;;;29.19;31.18;100972.88;109154;1238;63527;-81
2022/07/14 09:54:50;;;;;;;3.30;1.70;;;;;;;29.19;31.19;100973.74;109159;1237;61236;-83
2022/07/14 09:57:24;;;;;;;3.30;1.80;;;;;;;29.21;30.80;100986.39;109818;1237;61658;-83
2022/07/14 10:00:07;;;;;;;2.90;1.80;;;;;;;29.18;29.95;100975.84;109874;1237;70204;-85
2022/07/14 10:02:40;;;;;;;3.00;1.60;;;;;;;29.13;30.04;100974.05;110068;1236;61200;-83
2022/07/14 10:05:16;;;;;;;5.40;1.70;;;;;;;29.13;30.24;100973.78;110357;1238;70057;-86
2022/07/14 10:08:05;;;;;;;3.60;1.80;;;;;;;29.26;29.88;100978.61;110161;1236;64980;-85
2022/07/14 10:10:44;;;;;;;3.50;1.80;;;;;;;29.14;30.18;100969.92;109900;1236;57254;-85
2022/07/14 10:13:26;;;;;;;3.20;1.90;;;;;;;29.13;30.21;100968.82;110367;1236;57360;-86
2022/07/14 10:24:20;;;;;;;2.70;1.60;;;;;;;29.62;29.56;100965.80;110921;1233;60128;31
2022/07/14 10:57:17;;;;;;;2.60;1.70;;;;;;;32.14;25.76;100954.56;111256;1232;57145;-83
2022/07/14 11:00:59;;;;;;;2.50;1.50;;;;;;;32.06;25.85;100953.73;110797;1233;72302;31
2022/07/14 11:19:54;;;;;;;4.70;1.90;;;;;;;31.47;25.99;100942.42;110979;1233;57503;-82
2022/07/14 11:26:36;;;;;;;4.20;1.70;;;;;;;31.50;25.70;100950.72;111031;1232;71683;-79
2022/07/14 11:43:07;;;;;;;3.70;1.90;;;;;;;32.77;24.52;100935.41;111054;1232;60800;31
2022/07/14 11:49:26;;;;;;;1.80;1.30;;;;;;;33.42;23.97;100940.69;110863;1233;59706;-77
2022/07/14 12:29:06;;;;;;;2.70;1.80;;;;;;;31.97;25.26;100913.78;110860;1236;57211;-81
2022/07/14 12:31:45;;;;;;;2.40;1.50;;;;;;;32.07;25.25;100919.33;110473;1236;61436;31
2022/07/14 12:45:20;;;;;;;3.70;1.50;;;;;;;35.30;22.07;100902.04;110970;1237;57902;-84
2022/07/14 12:47:56;;;;;;;3.40;1.50;;;;;;;35.19;21.42;100894.27;110599;1237;58695;-82
2022/07/14 12:54:33;;;;;;;2.10;1.40;;;;;;;33.96;22.35;100903.46;110710;1235;70819;-80
2022/07/14 12:58:13;;;;;;;7.60;1.50;;;;;;;33.86;22.90;100900.55;110635;1235;71317;31
2022/07/14 13:01:03;;;;;;;2.80;1.40;;;;;;;34.60;22.44;100886.29;110477;1236;73947;-80
2022/07/14 13:03:32;;;;;;;2.30;1.40;;;;;;;35.38;21.08;100858.56;110442;1237;61387;-81
2022/07/14 13:06:46;;;;;;;1.90;1.50;;;;;;;35.79;21.01;100887.55;110666;1238;58202;31
2022/07/14 13:26:20;;;;;;;4.10;1.70;;;;;;;36.16;19.45;100877.73;110989;1235;62163;31
2022/07/14 13:35:20;;;;;;;3.60;1.60;;;;;;;34.90;21.24;100874.35;110591;1236;61329;-80
2022/07/14 13:38:56;;;;;;;4.10;1.80;;;;;;;34.55;21.49;100873.84;110504;1236;70501;31
2022/07/14 13:41:24;;;;;;;3.70;1.20;;;;;;;33.49;22.72;100871.39;110782;1235;73552;-82
2022/07/14 13:44:38;;;;;;;3.10;1.30;;;;;;;33.37;22.61;100868.30;110579;1235;59133;31
2022/07/14 13:48:13;;;;;;;3.10;1.60;;;;;;;32.97;23.25;100869.80;110622;1236;57221;31
2022/07/14 13:55:02;;;;;;;4.40;1.70;;;;;;;32.96;23.55;100849.84;110676;1236;70220;31
2022/07/14 13:57:47;;;;;;;4.80;1.70;;;;;;;33.52;23.18;100864.08;110523;1236;70303;31
2022/07/14 14:00:26;;;;;;;5.90;1.70;;;;;;;34.09;22.70;100870.12;110423;1235;74189;31
2022/07/14 14:03:28;;;;;;;2.90;1.60;;;;;;;34.71;22.24;100866.30;110674;1235;57229;31
2022/07/14 14:06:04;;;;;;;1.80;1.30;;;;;;;35.39;21.20;100856.42;110855;1234;59281;31
2022/07/14 14:08:53;;;;;;;4.10;1.50;;;;;;;36.27;20.81;100842.94;110643;1235;72095;31
2022/07/14 14:12:02;;;;;;;2.60;1.60;;;;;;;36.07;20.43;100851.91;111108;1234;72302;31
2022/07/14 14:14:30;;;;;;;2.50;1.70;;;;;;;35.93;20.24;100858.98;111478;1232;70519;-80
2022/07/14 14:16:58;;;;;;;4.60;2.30;;;;;;;36.64;20.01;100857.33;111179;1230;63405;-80
2022/07/14 14:24:33;;;;;;;2.70;1.60;;;;;;;36.36;19.55;100862.66;111310;1230;58691;31
2022/07/14 14:27:38;;;;;;;5.30;1.80;;;;;;;35.39;20.45;100853.11;111084;1233;63611;31
2022/07/14 14:30:07;;;;;;;4.60;1.70;;;;;;;34.35;21.64;100855.27;111233;1233;60752;-78
2022/07/14 14:32:35;;;;;;;5.00;2.70;;;;;;;34.17;21.96;100858.33;111189;1232;70483;-79
2022/07/14 14:35:04;;;;;;;2.80;1.50;;;;;;;33.85;22.31;100863.09;111171;1233;64618;-80
2022/07/14 14:37:34;;;;;;;4.70;1.90;;;;;;;33.28;23.03;100862.74;110912;1233;57341;-78
2022/07/14 14:40:06;;;;;;;3.80;1.50;;;;;;;32.94;23.53;100858.80;111128;1233;58427;-80
2022/07/14 14:42:43;;;;;;;3.80;1.80;;;;;;;32.73;24.01;100853.80;110919;1233;61652;31
2022/07/14 14:45:12;;;;;;;2.10;1.50;;;;;;;33.24;23.62;100849.13;111235;1234;61225;-80
2022/07/14 14:47:41;;;;;;;2.60;1.40;;;;;;;34.35;22.70;100848.55;111110;1235;69708;-80
2022/07/14 14:50:11;;;;;;;6.70;2.10;;;;;;;35.15;21.73;100846.58;110971;1235;63688;-81
2022/07/14 14:52:39;;;;;;;7.80;1.80;;;;;;;35.30;21.41;100849.46;110874;1238;57517;-77
2022/07/14 14:55:09;;;;;;;3.40;1.40;;;;;;;36.33;20.75;100841.38;110728;1236;60473;-81
2022/07/14 15:01:54;;;;;;;3.60;1.50;;;;;;;36.87;19.64;100835.71;110791;1236;69196;-82
2022/07/14 15:08:02;;;;;;;3.90;1.50;;;;;;;37.54;18.64;100836.92;110979;1233;64347;-80
2022/07/14 15:10:30;;;;;;;3.40;1.80;;;;;;;37.47;18.93;100829.85;110830;1237;61974;-80
2022/07/14 15:17:27;;;;;;;4.20;1.80;;;;;;;37.60;18.70;100832.80;110926;1234;73755;31
2022/07/14 15:19:55;;;;;;;1.70;1.10;;;;;;;38.05;17.81;100832.06;111013;1233;63172;-81
2022/07/14 15:22:39;;;;;;;5.10;1.50;;;;;;;37.75;18.25;100828.44;110989;1231;61330;31
2022/07/14 15:25:07;;;;;;;3.10;1.80;;;;;;;38.35;18.02;100831.00;111265;1233;63848;-79
2022/07/14 15:27:35;;;;;;;3.10;1.40;;;;;;;38.60;17.97;100836.45;110777;1235;57593;-80
2022/07/14 15:30:15;;;;;;;2.40;1.50;;;;;;;38.16;18.08;100831.45;110537;1238;59372;-77
2022/07/14 15:32:56;;;;;;;4.20;1.70;;;;;;;38.47;17.97;100828.27;110992;1235;72811;-79
2022/07/14 15:35:24;;;;;;;3.80;2.00;;;;;;;38.53;18.23;100823.59;111200;1234;61633;-80
2022/07/14 15:37:51;;;;;;;4.60;1.30;;;;;;;38.51;17.77;100821.72;110939;1233;69715;-81
2022/07/14 15:43:04;;;;;;;3.70;1.50;;;;;;;38.79;17.57;100830.75;110716;1235;58834;-78
2022/07/14 15:45:32;;;;;;;3.10;1.60;;;;;;;38.99;17.00;100827.23;111030;1234;58167;-78
2022/07/14 15:48:00;;;;;;;4.50;1.50;;;;;;;38.95;17.04;100830.23;110896;1234;62635;-79
2022/07/14 15:50:27;;;;;;;3.00;1.60;;;;;;;38.81;17.29;100830.78;110952;1234;60766;-79
2022/07/14 15:52:55;;;;;;;3.10;1.60;;;;;;;37.70;18.33;100833.06;110905;1233;60908;-79
2022/07/14 15:55:23;;;;;;;3.70;1.60;;;;;;;37.49;18.61;100835.63;110351;1235;63402;-76
2022/07/14 15:57:52;;;;;;;2.10;1.60;;;;;;;37.82;18.16;100829.88;110875;1234;58853;-78
2022/07/14 16:00:19;;;;;;;4.30;1.40;;;;;;;37.50;18.32;100827.14;110766;1235;58862;-79
2022/07/14 16:02:47;;;;;;;3.70;1.40;;;;;;;38.13;17.80;100830.20;110961;1235;63826;-77
2022/07/14 16:05:16;;;;;;;4.00;1.50;;;;;;;38.31;17.98;100826.65;111228;1233;62271;-78
2022/07/14 16:07:44;;;;;;;2.00;1.40;;;;;;;38.51;17.46;100828.48;111164;1235;59480;-79
2022/07/14 16:11:20;;;;;;;6.30;1.50;;;;;;;37.98;17.95;100826.42;111202;1232;62853;31
2022/07/14 16:13:47;;;;;;;3.80;1.80;;;;;;;37.28;18.68;100822.29;110890;1235;60871;-79
2022/07/14 16:16:15;;;;;;;3.90;1.70;;;;;;;37.51;18.37;100828.23;110889;1235;61078;-78
2022/07/14 16:18:47;;;;;;;3.10;1.70;;;;;;;37.37;18.42;100824.91;111243;1234;62585;-79
2022/07/14 16:21:15;;;;;;;1.80;1.50;;;;;;;37.32;18.60;100821.92;110860;1235;70389;-78
2022/07/14 16:23:44;;;;;;;4.90;1.70;;;;;;;37.80;18.20;100827.05;111111;1235;59652;-79
2022/07/14 16:26:41;;;;;;;2.30;1.50;;;;;;;36.97;18.79;100827.88;110554;1236;62527;31
2022/07/14 16:29:08;;;;;;;3.70;1.70;;;;;;;37.14;18.41;100810.36;111013;1236;60823;-78
2022/07/14 16:31:39;;;;;;;2.60;1.60;;;;;;;37.47;18.08;100826.31;110756;1235;61081;-77
2022/07/14 16:34:07;;;;;;;2.30;1.30;;;;;;;37.74;17.86;100829.04;111296;1233;73212;-80